Meteo Giornale » Osservazioni meteo Cuba » Cienfuegos Las Villas
ore: 09:50 - Osservazioni Meteo Cienfuegos Las Villas
Lat. 22° 9' N Lon. 80° 24' W Alt. 39 metri s.l.m.
30 °C
Poco Nuvoloso
Temp. 24 Ore
23 °C
35 °C
Nord
1.8 Km/h
Dew point 25 °C
Umidità 74 %
Visibilità 10 Km
Il sole sorge alle ore 07:04
Il sole tramonta alle ore 19:38
| Data e Ora | Cielo e Fenomeni | T °C | DP °C | Um. % | Pres. hPa | Vis. km | Vento km/h | |
|---|---|---|---|---|---|---|---|---|
| Oggi h: 09:50 | Poco Nuvoloso | 30 | 25 | 74 | 1015 | 10 | N 1.8 | |
| Oggi h: 08:50 | Poco Nuvoloso | 28 | 26 | 88 | 1015 | 10 | N 3.7 | |
| Oggi h: 07:50 | Poco Nuvoloso | 25 | 25 | 100 | 1014 | 10 | N 3.7 | |
| Oggi h: 06:50 | Sereno | 25 | 25 | 100 | 1013 | 11 | E/NE 9.3 | |
| Oggi h: 05:50 | Sereno | 25 | 25 | 100 | 1013 | 11 | N 5.5 | |
| Oggi h: 04:50 | Sereno | 25 | 24 | 94 | 1013 | 11 | E 7.4 | |
| Oggi h: 03:50 | Sereno | 25 | 25 | 100 | 1014 | 11 | N 5.5 | |
| Oggi h: 02:50 | Sereno | 26 | 25 | 94 | 1014 | 11 | NE 7.4 | |
| Oggi h: 01:50 | Sereno | 26 | 25 | 94 | 1015 | 11 | E/NE 9.3 | |
| Oggi h: 00:50 | Sereno | 26 | 25 | 94 | 1015 | 10 | E/NE 11.1 | |
| Ieri h: 23:50 | Sereno | 25 | 24 | 94 | 1015 | 10 | N/NE 14.8 | |
| Ieri h: 22:50 | Sereno | 24 | 22 | 88 | 1015 | 10 | N/NE 9.3 | |
| Ieri h: 21:50 | Sereno | 24 | 22 | 88 | 1014 | 10 | E 7.4 | |
| Ieri h: 20:50 | Sereno | 23 | 20 | 83 | 1016 | 10 | O/SO 31.5 | |
| Ieri h: 19:50 | Sereno | 29 | 27 | 89 | 1014 | 0 | S 7.4 | |
| Ieri h: 18:50 | Sereno | 30 | 26 | 79 | 1013 | 0 | N 5.5 | |
| Ieri h: 17:50 | Sereno | 32 | 26 | 70 | 1013 | 0 | SO 7.4 | |
| Ieri h: 16:50 | Sereno | 32 | 26 | 70 | 1013 | 0 | SO 7.4 | |
| Ieri h: 15:50 | Sereno | 33 | 26 | 66 | 1013 | 0 | S/SO 13 | |
| Ieri h: 14:50 | Sereno | 34 | 27 | 67 | 1014 | 0 | S/SO 9.3 | |
| Ieri h: 13:50 | Sereno | 35 | 25 | 56 | 1015 | 0 | E/NE 7.4 | |
| Ieri h: 12:50 | Molto Nuvoloso | 34 | 26 | 63 | 1015 | 10 | E/NE 7.4 | |
| Ieri h: 11:50 | Nuvoloso | 32 | 26 | 70 | 1016 | 10 | E/NE 11.1 | |
| Ieri h: 10:50 | Poco Nuvoloso | 32 | 26 | 70 | 1016 | 10 | NE 9.3 | |



